sensor_id;sensor_type;location;lat;lon;timestamp;temperature;humidity
6252;DHT22;3159;52.414;9.784;2022-07-21T00:01:05;25.10;92.80
6252;DHT22;3159;52.414;9.784;2022-07-21T00:03:32;25.20;92.90
6252;DHT22;3159;52.414;9.784;2022-07-21T00:06:03;25.20;92.70
6252;DHT22;3159;52.414;9.784;2022-07-21T00:08:30;25.20;93.00
6252;DHT22;3159;52.414;9.784;2022-07-21T00:10:57;25.20;93.30
6252;DHT22;3159;52.414;9.784;2022-07-21T00:13:25;25.40;93.00
6252;DHT22;3159;52.414;9.784;2022-07-21T00:15:52;25.20;93.60
6252;DHT22;3159;52.414;9.784;2022-07-21T00:18:20;25.10;93.90
6252;DHT22;3159;52.414;9.784;2022-07-21T00:20:47;25.20;94.10
6252;DHT22;3159;52.414;9.784;2022-07-21T00:23:14;25.30;94.40
6252;DHT22;3159;52.414;9.784;2022-07-21T00:25:41;25.20;94.50
6252;DHT22;3159;52.414;9.784;2022-07-21T00:28:08;25.30;94.60
6252;DHT22;3159;52.414;9.784;2022-07-21T00:30:37;25.30;94.70
6252;DHT22;3159;52.414;9.784;2022-07-21T00:33:04;25.10;95.00
6252;DHT22;3159;52.414;9.784;2022-07-21T00:35:31;25.00;95.50
6252;DHT22;3159;52.414;9.784;2022-07-21T00:37:58;25.10;95.50
6252;DHT22;3159;52.414;9.784;2022-07-21T00:40:26;24.90;96.10
6252;DHT22;3159;52.414;9.784;2022-07-21T00:42:53;24.90;96.60
6252;DHT22;3159;52.414;9.784;2022-07-21T00:45:21;25.00;96.70
6252;DHT22;3159;52.414;9.784;2022-07-21T00:47:49;25.10;97.00
6252;DHT22;3159;52.414;9.784;2022-07-21T00:50:19;24.90;97.30
6252;DHT22;3159;52.414;9.784;2022-07-21T00:52:47;25.10;97.20
6252;DHT22;3159;52.414;9.784;2022-07-21T00:55:15;24.90;97.60
6252;DHT22;3159;52.414;9.784;2022-07-21T00:57:43;25.00;97.40
6252;DHT22;3159;52.414;9.784;2022-07-21T01:00:13;25.10;97.50
6252;DHT22;3159;52.414;9.784;2022-07-21T01:02:40;25.10;97.60
6252;DHT22;3159;52.414;9.784;2022-07-21T01:05:11;25.10;97.90
6252;DHT22;3159;52.414;9.784;2022-07-21T01:07:40;25.10;98.10
6252;DHT22;3159;52.414;9.784;2022-07-21T01:10:08;25.10;98.30
6252;DHT22;3159;52.414;9.784;2022-07-21T01:12:36;25.10;98.80
6252;DHT22;3159;52.414;9.784;2022-07-21T01:15:04;25.10;98.60
6252;DHT22;3159;52.414;9.784;2022-07-21T01:17:31;25.30;98.50
6252;DHT22;3159;52.414;9.784;2022-07-21T01:20:00;25.20;98.60
6252;DHT22;3159;52.414;9.784;2022-07-21T01:22:30;25.20;99.00
6252;DHT22;3159;52.414;9.784;2022-07-21T01:24:57;25.10;99.20
6252;DHT22;3159;52.414;9.784;2022-07-21T01:27:25;25.30;99.00
6252;DHT22;3159;52.414;9.784;2022-07-21T01:29:52;25.30;99.50
6252;DHT22;3159;52.414;9.784;2022-07-21T01:32:19;25.20;99.80
6252;DHT22;3159;52.414;9.784;2022-07-21T01:34:47;25.20;99.90
6252;DHT22;3159;52.414;9.784;2022-07-21T01:37:14;25.20;99.90
6252;DHT22;3159;52.414;9.784;2022-07-21T01:39:42;25.10;99.90
6252;DHT22;3159;52.414;9.784;2022-07-21T01:42:38;24.90;99.90
6252;DHT22;3159;52.414;9.784;2022-07-21T01:45:06;25.20;99.90
6252;DHT22;3159;52.414;9.784;2022-07-21T01:47:33;25.30;99.90
6252;DHT22;3159;52.414;9.784;2022-07-21T01:50:01;25.40;99.90
6252;DHT22;3159;52.414;9.784;2022-07-21T01:52:28;25.50;99.90
6252;DHT22;3159;52.414;9.784;2022-07-21T01:54:57;25.50;99.90
6252;DHT22;3159;52.414;9.784;2022-07-21T01:57:24;25.50;99.90
6252;DHT22;3159;52.414;9.784;2022-07-21T01:59:51;25.30;99.90
6252;DHT22;3159;52.414;9.784;2022-07-21T02:02:18;25.30;99.90
6252;DHT22;3159;52.414;9.784;2022-07-21T02:04:46;25.30;99.90
6252;DHT22;3159;52.414;9.784;2022-07-21T02:07:14;25.30;99.90
6252;DHT22;3159;52.414;9.784;2022-07-21T02:09:41;25.10;99.90
6252;DHT22;3159;52.414;9.784;2022-07-21T02:12:10;25.00;99.90
6252;DHT22;3159;52.414;9.784;2022-07-21T02:14:37;25.00;99.90
6252;DHT22;3159;52.414;9.784;2022-07-21T02:17:04;25.10;99.90
6252;DHT22;3159;52.414;9.784;2022-07-21T02:19:31;25.20;99.90
6252;DHT22;3159;52.414;9.784;2022-07-21T02:21:58;25.20;99.90
6252;DHT22;3159;52.414;9.784;2022-07-21T02:24:25;25.10;99.90
6252;DHT22;3159;52.414;9.784;2022-07-21T02:26:52;25.00;99.90
6252;DHT22;3159;52.414;9.784;2022-07-21T02:29:20;25.00;99.90
6252;DHT22;3159;52.414;9.784;2022-07-21T02:31:47;25.00;99.90
6252;DHT22;3159;52.414;9.784;2022-07-21T02:34:14;25.00;99.90
6252;DHT22;3159;52.414;9.784;2022-07-21T02:36:41;25.10;99.90
6252;DHT22;3159;52.414;9.784;2022-07-21T02:39:08;25.10;99.90
6252;DHT22;3159;52.414;9.784;2022-07-21T02:41:35;25.00;99.90
6252;DHT22;3159;52.414;9.784;2022-07-21T02:44:02;24.90;99.90
6252;DHT22;3159;52.414;9.784;2022-07-21T02:46:31;24.70;99.90
6252;DHT22;3159;52.414;9.784;2022-07-21T02:48:57;24.70;99.90
6252;DHT22;3159;52.414;9.784;2022-07-21T02:51:24;24.70;99.90
6252;DHT22;3159;52.414;9.784;2022-07-21T02:53:51;24.60;99.90
6252;DHT22;3159;52.414;9.784;2022-07-21T02:56:18;24.60;99.90
6252;DHT22;3159;52.414;9.784;2022-07-21T02:58:47;24.50;99.90
6252;DHT22;3159;52.414;9.784;2022-07-21T03:01:14;24.50;99.90
6252;DHT22;3159;52.414;9.784;2022-07-21T03:03:42;24.60;99.90
6252;DHT22;3159;52.414;9.784;2022-07-21T03:06:09;24.50;99.90
6252;DHT22;3159;52.414;9.784;2022-07-21T03:08:36;24.50;99.90
6252;DHT22;3159;52.414;9.784;2022-07-21T03:11:03;24.40;99.90
6252;DHT22;3159;52.414;9.784;2022-07-21T03:13:30;24.40;99.90
6252;DHT22;3159;52.414;9.784;2022-07-21T03:15:56;24.50;99.90
6252;DHT22;3159;52.414;9.784;2022-07-21T03:18:23;24.50;99.90
6252;DHT22;3159;52.414;9.784;2022-07-21T03:20:52;24.50;99.90
6252;DHT22;3159;52.414;9.784;2022-07-21T03:23:19;24.70;99.90
6252;DHT22;3159;52.414;9.784;2022-07-21T03:25:46;24.50;99.90
6252;DHT22;3159;52.414;9.784;2022-07-21T03:28:13;24.50;99.90
6252;DHT22;3159;52.414;9.784;2022-07-21T03:30:40;24.50;99.90
6252;DHT22;3159;52.414;9.784;2022-07-21T03:33:07;24.50;99.90
6252;DHT22;3159;52.414;9.784;2022-07-21T03:35:34;24.50;99.90
6252;DHT22;3159;52.414;9.784;2022-07-21T03:38:04;24.50;99.90
6252;DHT22;3159;52.414;9.784;2022-07-21T03:40:35;24.40;99.90
6252;DHT22;3159;52.414;9.784;2022-07-21T03:43:03;24.50;99.90
6252;DHT22;3159;52.414;9.784;2022-07-21T03:45:31;24.60;99.90
6252;DHT22;3159;52.414;9.784;2022-07-21T03:47:59;24.30;99.90
6252;DHT22;3159;52.414;9.784;2022-07-21T03:50:27;24.30;99.90
6252;DHT22;3159;52.414;9.784;2022-07-21T03:52:54;24.30;99.90
6252;DHT22;3159;52.414;9.784;2022-07-21T03:55:23;24.30;99.90
6252;DHT22;3159;52.414;9.784;2022-07-21T03:57:51;24.30;99.90
6252;DHT22;3159;52.414;9.784;2022-07-21T04:00:20;24.30;99.90
6252;DHT22;3159;52.414;9.784;2022-07-21T04:02:49;24.20;99.90
6252;DHT22;3159;52.414;9.784;2022-07-21T04:05:16;24.10;99.90
6252;DHT22;3159;52.414;9.784;2022-07-21T04:07:45;24.10;99.90
6252;DHT22;3159;52.414;9.784;2022-07-21T04:10:13;24.00;99.90
6252;DHT22;3159;52.414;9.784;2022-07-21T04:12:42;24.00;99.90
6252;DHT22;3159;52.414;9.784;2022-07-21T04:15:09;23.90;99.90
6252;DHT22;3159;52.414;9.784;2022-07-21T04:17:37;23.70;99.90
6252;DHT22;3159;52.414;9.784;2022-07-21T04:20:05;23.80;99.90
6252;DHT22;3159;52.414;9.784;2022-07-21T04:22:33;23.90;99.90
6252;DHT22;3159;52.414;9.784;2022-07-21T04:24:59;23.90;99.90
6252;DHT22;3159;52.414;9.784;2022-07-21T04:27:27;23.70;99.90
6252;DHT22;3159;52.414;9.784;2022-07-21T04:29:55;23.80;99.90
6252;DHT22;3159;52.414;9.784;2022-07-21T04:32:22;24.00;99.90
6252;DHT22;3159;52.414;9.784;2022-07-21T04:34:49;24.00;99.90
6252;DHT22;3159;52.414;9.784;2022-07-21T04:37:16;23.70;99.90
6252;DHT22;3159;52.414;9.784;2022-07-21T04:39:43;23.70;99.90
6252;DHT22;3159;52.414;9.784;2022-07-21T04:42:10;23.80;99.90
6252;DHT22;3159;52.414;9.784;2022-07-21T04:44:37;23.60;99.90
6252;DHT22;3159;52.414;9.784;2022-07-21T04:47:05;23.70;99.90
6252;DHT22;3159;52.414;9.784;2022-07-21T04:49:32;23.60;99.90
6252;DHT22;3159;52.414;9.784;2022-07-21T04:51:59;23.70;99.90
6252;DHT22;3159;52.414;9.784;2022-07-21T04:54:26;23.60;99.90
6252;DHT22;3159;52.414;9.784;2022-07-21T04:56:53;23.50;99.90
6252;DHT22;3159;52.414;9.784;2022-07-21T04:59:21;23.40;99.90
6252;DHT22;3159;52.414;9.784;2022-07-21T05:01:48;23.30;99.90
6252;DHT22;3159;52.414;9.784;2022-07-21T05:04:16;23.20;99.90
6252;DHT22;3159;52.414;9.784;2022-07-21T05:06:43;23.20;99.90
6252;DHT22;3159;52.414;9.784;2022-07-21T05:09:10;23.10;99.90
6252;DHT22;3159;52.414;9.784;2022-07-21T05:11:36;23.20;99.90
6252;DHT22;3159;52.414;9.784;2022-07-21T05:14:03;23.30;99.90
6252;DHT22;3159;52.414;9.784;2022-07-21T05:16:30;23.30;99.90
6252;DHT22;3159;52.414;9.784;2022-07-21T05:18:57;23.40;99.90
6252;DHT22;3159;52.414;9.784;2022-07-21T05:21:25;23.30;99.90
6252;DHT22;3159;52.414;9.784;2022-07-21T05:23:52;23.10;99.90
6252;DHT22;3159;52.414;9.784;2022-07-21T05:26:20;23.10;99.90
6252;DHT22;3159;52.414;9.784;2022-07-21T05:28:47;23.20;99.90
6252;DHT22;3159;52.414;9.784;2022-07-21T05:31:14;23.30;99.90
6252;DHT22;3159;52.414;9.784;2022-07-21T05:33:41;23.30;99.90
6252;DHT22;3159;52.414;9.784;2022-07-21T05:36:08;23.40;99.90
6252;DHT22;3159;52.414;9.784;2022-07-21T05:38:36;23.40;99.90
6252;DHT22;3159;52.414;9.784;2022-07-21T05:41:03;23.20;99.90
6252;DHT22;3159;52.414;9.784;2022-07-21T05:43:32;23.20;99.90
6252;DHT22;3159;52.414;9.784;2022-07-21T05:45:58;23.00;99.90
6252;DHT22;3159;52.414;9.784;2022-07-21T05:48:25;22.90;99.90
6252;DHT22;3159;52.414;9.784;2022-07-21T05:50:52;22.90;99.90
6252;DHT22;3159;52.414;9.784;2022-07-21T05:53:19;22.90;99.90
6252;DHT22;3159;52.414;9.784;2022-07-21T05:55:49;22.90;99.90
6252;DHT22;3159;52.414;9.784;2022-07-21T05:58:16;23.00;99.90
6252;DHT22;3159;52.414;9.784;2022-07-21T06:00:44;23.00;99.90
6252;DHT22;3159;52.414;9.784;2022-07-21T06:03:32;22.90;99.90
6252;DHT22;3159;52.414;9.784;2022-07-21T06:05:59;22.80;99.90
6252;DHT22;3159;52.414;9.784;2022-07-21T06:08:26;22.80;99.90
6252;DHT22;3159;52.414;9.784;2022-07-21T06:10:54;23.10;99.90
6252;DHT22;3159;52.414;9.784;2022-07-21T06:13:21;23.10;99.90
6252;DHT22;3159;52.414;9.784;2022-07-21T06:15:50;23.10;99.90
6252;DHT22;3159;52.414;9.784;2022-07-21T06:18:17;23.00;99.90
6252;DHT22;3159;52.414;9.784;2022-07-21T06:20:44;23.10;99.90
6252;DHT22;3159;52.414;9.784;2022-07-21T06:23:11;22.90;99.90
6252;DHT22;3159;52.414;9.784;2022-07-21T06:25:38;23.10;99.90
6252;DHT22;3159;52.414;9.784;2022-07-21T06:28:06;23.10;99.90
6252;DHT22;3159;52.414;9.784;2022-07-21T06:30:33;23.00;99.90
6252;DHT22;3159;52.414;9.784;2022-07-21T06:33:00;22.90;99.90
6252;DHT22;3159;52.414;9.784;2022-07-21T06:35:27;23.00;99.90
6252;DHT22;3159;52.414;9.784;2022-07-21T06:37:54;22.90;99.90
6252;DHT22;3159;52.414;9.784;2022-07-21T06:40:21;22.80;99.90
6252;DHT22;3159;52.414;9.784;2022-07-21T06:42:48;22.80;99.90
6252;DHT22;3159;52.414;9.784;2022-07-21T06:45:16;23.00;99.90
6252;DHT22;3159;52.414;9.784;2022-07-21T06:47:44;23.10;99.90
6252;DHT22;3159;52.414;9.784;2022-07-21T06:50:11;23.10;99.90
6252;DHT22;3159;52.414;9.784;2022-07-21T06:52:38;23.10;99.90
6252;DHT22;3159;52.414;9.784;2022-07-21T06:55:08;23.00;99.90
6252;DHT22;3159;52.414;9.784;2022-07-21T06:57:36;23.20;99.90
6252;DHT22;3159;52.414;9.784;2022-07-21T07:00:05;23.20;99.90
6252;DHT22;3159;52.414;9.784;2022-07-21T07:02:33;23.10;99.90
6252;DHT22;3159;52.414;9.784;2022-07-21T07:05:00;23.20;99.90
6252;DHT22;3159;52.414;9.784;2022-07-21T07:07:30;23.30;99.90
6252;DHT22;3159;52.414;9.784;2022-07-21T07:09:57;23.40;99.90
6252;DHT22;3159;52.414;9.784;2022-07-21T07:12:25;23.50;99.90
6252;DHT22;3159;52.414;9.784;2022-07-21T07:14:52;23.50;99.90
6252;DHT22;3159;52.414;9.784;2022-07-21T07:17:19;23.30;99.90
6252;DHT22;3159;52.414;9.784;2022-07-21T07:19:47;23.50;99.90
6252;DHT22;3159;52.414;9.784;2022-07-21T07:22:15;23.40;99.90
6252;DHT22;3159;52.414;9.784;2022-07-21T07:24:42;23.20;99.90
6252;DHT22;3159;52.414;9.784;2022-07-21T07:27:09;23.00;99.90
6252;DHT22;3159;52.414;9.784;2022-07-21T07:29:36;23.30;99.90
6252;DHT22;3159;52.414;9.784;2022-07-21T07:32:03;23.30;99.90
6252;DHT22;3159;52.414;9.784;2022-07-21T07:34:30;23.40;99.90
6252;DHT22;3159;52.414;9.784;2022-07-21T07:37:00;23.40;99.90
6252;DHT22;3159;52.414;9.784;2022-07-21T07:39:27;23.30;99.90
6252;DHT22;3159;52.414;9.784;2022-07-21T07:41:53;23.30;99.90
6252;DHT22;3159;52.414;9.784;2022-07-21T07:44:21;23.10;99.90
6252;DHT22;3159;52.414;9.784;2022-07-21T07:46:48;23.00;99.90
6252;DHT22;3159;52.414;9.784;2022-07-21T07:49:16;23.20;99.90
6252;DHT22;3159;52.414;9.784;2022-07-21T07:51:43;23.20;99.90
6252;DHT22;3159;52.414;9.784;2022-07-21T07:54:11;22.90;99.90
6252;DHT22;3159;52.414;9.784;2022-07-21T07:56:38;22.90;99.90
6252;DHT22;3159;52.414;9.784;2022-07-21T07:59:05;22.90;99.90
6252;DHT22;3159;52.414;9.784;2022-07-21T08:01:32;22.70;99.90
6252;DHT22;3159;52.414;9.784;2022-07-21T08:03:59;22.60;99.90
6252;DHT22;3159;52.414;9.784;2022-07-21T08:06:26;22.70;99.90
6252;DHT22;3159;52.414;9.784;2022-07-21T08:08:52;22.70;99.90
6252;DHT22;3159;52.414;9.784;2022-07-21T08:11:21;22.40;99.90
6252;DHT22;3159;52.414;9.784;2022-07-21T08:13:48;22.50;99.90
6252;DHT22;3159;52.414;9.784;2022-07-21T08:16:15;22.30;99.90
6252;DHT22;3159;52.414;9.784;2022-07-21T08:18:42;22.30;99.90
6252;DHT22;3159;52.414;9.784;2022-07-21T08:21:09;22.20;99.90
6252;DHT22;3159;52.414;9.784;2022-07-21T08:23:36;22.20;99.90
6252;DHT22;3159;52.414;9.784;2022-07-21T08:26:04;22.40;99.90
6252;DHT22;3159;52.414;9.784;2022-07-21T08:28:32;22.30;99.90
6252;DHT22;3159;52.414;9.784;2022-07-21T08:30:59;22.30;99.90
6252;DHT22;3159;52.414;9.784;2022-07-21T08:33:26;22.20;99.90
6252;DHT22;3159;52.414;9.784;2022-07-21T08:35:53;22.30;99.90
6252;DHT22;3159;52.414;9.784;2022-07-21T08:38:20;22.30;99.90
6252;DHT22;3159;52.414;9.784;2022-07-21T08:40:47;22.40;99.90
6252;DHT22;3159;52.414;9.784;2022-07-21T08:43:14;22.70;99.90
6252;DHT22;3159;52.414;9.784;2022-07-21T08:45:43;22.60;99.90
6252;DHT22;3159;52.414;9.784;2022-07-21T08:48:10;22.80;99.90
6252;DHT22;3159;52.414;9.784;2022-07-21T08:50:39;22.80;99.90
6252;DHT22;3159;52.414;9.784;2022-07-21T08:53:06;22.80;99.90
6252;DHT22;3159;52.414;9.784;2022-07-21T08:55:35;22.60;99.90
6252;DHT22;3159;52.414;9.784;2022-07-21T08:58:04;22.50;99.90
6252;DHT22;3159;52.414;9.784;2022-07-21T09:00:31;22.70;99.90
6252;DHT22;3159;52.414;9.784;2022-07-21T09:03:13;23.00;99.90
6252;DHT22;3159;52.414;9.784;2022-07-21T09:05:40;22.50;99.90
6252;DHT22;3159;52.414;9.784;2022-07-21T09:08:08;22.70;99.90
6252;DHT22;3159;52.414;9.784;2022-07-21T09:10:35;22.80;99.90
6252;DHT22;3159;52.414;9.784;2022-07-21T09:13:04;22.80;99.90
6252;DHT22;3159;52.414;9.784;2022-07-21T09:15:32;22.60;99.90
6252;DHT22;3159;52.414;9.784;2022-07-21T09:18:10;22.70;99.90
6252;DHT22;3159;52.414;9.784;2022-07-21T09:20:46;22.70;99.90
6252;DHT22;3159;52.414;9.784;2022-07-21T09:23:16;22.70;99.90
6252;DHT22;3159;52.414;9.784;2022-07-21T09:25:45;23.00;99.90
6252;DHT22;3159;52.414;9.784;2022-07-21T09:28:14;23.20;99.90
6252;DHT22;3159;52.414;9.784;2022-07-21T09:30:57;23.40;99.90
6252;DHT22;3159;52.414;9.784;2022-07-21T09:33:27;23.40;99.90
6252;DHT22;3159;52.414;9.784;2022-07-21T09:36:01;23.30;99.90
6252;DHT22;3159;52.414;9.784;2022-07-21T09:38:29;23.20;99.90
6252;DHT22;3159;52.414;9.784;2022-07-21T09:41:04;22.80;99.90
6252;DHT22;3159;52.414;9.784;2022-07-21T09:43:34;22.70;99.90
6252;DHT22;3159;52.414;9.784;2022-07-21T09:46:03;22.80;99.90
6252;DHT22;3159;52.414;9.784;2022-07-21T09:48:32;22.70;99.90
6252;DHT22;3159;52.414;9.784;2022-07-21T09:51:28;22.50;99.90
6252;DHT22;3159;52.414;9.784;2022-07-21T09:53:59;22.60;99.90
6252;DHT22;3159;52.414;9.784;2022-07-21T09:56:28;22.60;99.90
6252;DHT22;3159;52.414;9.784;2022-07-21T09:58:56;22.50;99.90
6252;DHT22;3159;52.414;9.784;2022-07-21T10:01:24;22.60;99.90
6252;DHT22;3159;52.414;9.784;2022-07-21T10:03:52;22.60;99.90
6252;DHT22;3159;52.414;9.784;2022-07-21T10:06:23;22.70;99.90
6252;DHT22;3159;52.414;9.784;2022-07-21T10:08:52;22.90;99.90
6252;DHT22;3159;52.414;9.784;2022-07-21T10:11:19;23.10;99.90
6252;DHT22;3159;52.414;9.784;2022-07-21T10:13:46;23.30;99.90
6252;DHT22;3159;52.414;9.784;2022-07-21T10:16:14;23.10;99.90
6252;DHT22;3159;52.414;9.784;2022-07-21T10:18:58;23.10;99.90
6252;DHT22;3159;52.414;9.784;2022-07-21T10:21:36;23.30;99.90
6252;DHT22;3159;52.414;9.784;2022-07-21T10:24:10;23.60;99.90
6252;DHT22;3159;52.414;9.784;2022-07-21T10:26:37;23.80;99.90
6252;DHT22;3159;52.414;9.784;2022-07-21T10:29:04;24.10;99.90
6252;DHT22;3159;52.414;9.784;2022-07-21T10:31:41;24.30;99.90
6252;DHT22;3159;52.414;9.784;2022-07-21T10:34:08;24.30;99.90
6252;DHT22;3159;52.414;9.784;2022-07-21T10:36:45;24.60;99.90
6252;DHT22;3159;52.414;9.784;2022-07-21T10:39:21;24.80;99.90
6252;DHT22;3159;52.414;9.784;2022-07-21T10:41:50;25.50;99.90
6252;DHT22;3159;52.414;9.784;2022-07-21T10:44:38;26.10;99.90
6252;DHT22;3159;52.414;9.784;2022-07-21T10:47:08;25.90;99.90
6252;DHT22;3159;52.414;9.784;2022-07-21T10:49:47;26.60;99.90
6252;DHT22;3159;52.414;9.784;2022-07-21T10:55:21;26.70;99.90
6252;DHT22;3159;52.414;9.784;2022-07-21T10:58:15;26.90;99.90
6252;DHT22;3159;52.414;9.784;2022-07-21T11:00:48;26.80;99.90
6252;DHT22;3159;52.414;9.784;2022-07-21T11:03:22;26.40;99.90
6252;DHT22;3159;52.414;9.784;2022-07-21T11:06:17;26.50;99.90
6252;DHT22;3159;52.414;9.784;2022-07-21T11:08:46;26.40;99.90
6252;DHT22;3159;52.414;9.784;2022-07-21T11:11:17;26.20;99.90
6252;DHT22;3159;52.414;9.784;2022-07-21T11:14:02;26.40;99.90
6252;DHT22;3159;52.414;9.784;2022-07-21T11:16:57;27.00;99.90
6252;DHT22;3159;52.414;9.784;2022-07-21T11:19:28;27.60;99.90
6252;DHT22;3159;52.414;9.784;2022-07-21T11:21:57;27.10;99.90
6252;DHT22;3159;52.414;9.784;2022-07-21T11:24:25;27.60;99.90
6252;DHT22;3159;52.414;9.784;2022-07-21T11:26:59;28.00;99.90
6252;DHT22;3159;52.414;9.784;2022-07-21T11:29:26;28.10;99.90
6252;DHT22;3159;52.414;9.784;2022-07-21T11:31:54;27.80;99.90
6252;DHT22;3159;52.414;9.784;2022-07-21T11:34:20;27.60;99.90
6252;DHT22;3159;52.414;9.784;2022-07-21T11:36:47;27.80;99.90
6252;DHT22;3159;52.414;9.784;2022-07-21T11:39:24;27.20;99.90
6252;DHT22;3159;52.414;9.784;2022-07-21T11:41:50;26.90;99.90
6252;DHT22;3159;52.414;9.784;2022-07-21T11:44:24;26.90;99.90
6252;DHT22;3159;52.414;9.784;2022-07-21T11:46:53;26.80;99.90
6252;DHT22;3159;52.414;9.784;2022-07-21T11:49:21;27.10;99.90
6252;DHT22;3159;52.414;9.784;2022-07-21T11:51:50;26.60;99.90
6252;DHT22;3159;52.414;9.784;2022-07-21T11:54:26;27.10;99.90
6252;DHT22;3159;52.414;9.784;2022-07-21T11:56:54;28.00;99.90
6252;DHT22;3159;52.414;9.784;2022-07-21T11:59:23;28.30;99.90
6252;DHT22;3159;52.414;9.784;2022-07-21T12:01:53;28.00;99.90
6252;DHT22;3159;52.414;9.784;2022-07-21T12:04:34;27.70;99.90
6252;DHT22;3159;52.414;9.784;2022-07-21T12:07:02;27.90;99.90
6252;DHT22;3159;52.414;9.784;2022-07-21T12:09:31;27.70;99.90
6252;DHT22;3159;52.414;9.784;2022-07-21T12:11:58;27.70;99.90
6252;DHT22;3159;52.414;9.784;2022-07-21T12:14:47;27.60;99.90
6252;DHT22;3159;52.414;9.784;2022-07-21T12:17:16;27.30;99.90
6252;DHT22;3159;52.414;9.784;2022-07-21T12:19:44;27.20;99.90
6252;DHT22;3159;52.414;9.784;2022-07-21T12:22:11;27.20;99.90
6252;DHT22;3159;52.414;9.784;2022-07-21T12:24:52;27.20;99.90
6252;DHT22;3159;52.414;9.784;2022-07-21T12:27:20;26.80;99.90
6252;DHT22;3159;52.414;9.784;2022-07-21T12:29:49;26.80;99.90
6252;DHT22;3159;52.414;9.784;2022-07-21T12:32:46;26.80;99.90
6252;DHT22;3159;52.414;9.784;2022-07-21T12:35:25;26.90;99.90
6252;DHT22;3159;52.414;9.784;2022-07-21T12:37:54;26.70;99.90
6252;DHT22;3159;52.414;9.784;2022-07-21T12:40:21;26.50;99.90
6252;DHT22;3159;52.414;9.784;2022-07-21T12:42:48;26.40;99.90
6252;DHT22;3159;52.414;9.784;2022-07-21T12:45:18;26.10;99.90
6252;DHT22;3159;52.414;9.784;2022-07-21T12:48:07;25.90;99.90
6252;DHT22;3159;52.414;9.784;2022-07-21T12:50:35;25.50;99.90
6252;DHT22;3159;52.414;9.784;2022-07-21T12:53:04;25.30;99.90
6252;DHT22;3159;52.414;9.784;2022-07-21T12:55:31;25.40;99.90
6252;DHT22;3159;52.414;9.784;2022-07-21T12:57:58;25.50;99.90
6252;DHT22;3159;52.414;9.784;2022-07-21T13:00:26;25.60;99.90
6252;DHT22;3159;52.414;9.784;2022-07-21T13:02:55;25.70;99.90
6252;DHT22;3159;52.414;9.784;2022-07-21T13:05:24;25.20;99.90
6252;DHT22;3159;52.414;9.784;2022-07-21T13:07:51;25.10;99.90
6252;DHT22;3159;52.414;9.784;2022-07-21T13:10:19;25.00;99.90
6252;DHT22;3159;52.414;9.784;2022-07-21T13:12:46;25.10;99.90
6252;DHT22;3159;52.414;9.784;2022-07-21T13:15:13;24.90;99.90
6252;DHT22;3159;52.414;9.784;2022-07-21T13:17:42;24.60;99.90
6252;DHT22;3159;52.414;9.784;2022-07-21T13:20:11;24.50;99.90
6252;DHT22;3159;52.414;9.784;2022-07-21T13:22:38;24.50;99.90
6252;DHT22;3159;52.414;9.784;2022-07-21T13:25:06;24.40;99.90
6252;DHT22;3159;52.414;9.784;2022-07-21T13:27:33;24.70;99.90
6252;DHT22;3159;52.414;9.784;2022-07-21T13:30:00;24.70;99.90
6252;DHT22;3159;52.414;9.784;2022-07-21T13:32:27;24.30;99.90
6252;DHT22;3159;52.414;9.784;2022-07-21T13:34:56;23.90;99.90
6252;DHT22;3159;52.414;9.784;2022-07-21T13:37:23;23.90;99.90
6252;DHT22;3159;52.414;9.784;2022-07-21T13:39:50;23.60;99.90
6252;DHT22;3159;52.414;9.784;2022-07-21T13:42:16;23.30;99.90
6252;DHT22;3159;52.414;9.784;2022-07-21T13:44:43;23.60;99.90
6252;DHT22;3159;52.414;9.784;2022-07-21T13:47:10;24.00;99.90
6252;DHT22;3159;52.414;9.784;2022-07-21T13:49:37;24.10;99.90
6252;DHT22;3159;52.414;9.784;2022-07-21T13:52:06;24.10;99.90
6252;DHT22;3159;52.414;9.784;2022-07-21T13:54:33;24.50;99.90
6252;DHT22;3159;52.414;9.784;2022-07-21T13:57:01;24.50;99.90
6252;DHT22;3159;52.414;9.784;2022-07-21T13:59:27;24.30;99.90
6252;DHT22;3159;52.414;9.784;2022-07-21T14:01:54;24.30;99.90
6252;DHT22;3159;52.414;9.784;2022-07-21T14:04:22;24.20;99.90
6252;DHT22;3159;52.414;9.784;2022-07-21T14:06:49;24.50;99.90
6252;DHT22;3159;52.414;9.784;2022-07-21T14:09:19;24.50;99.90
6252;DHT22;3159;52.414;9.784;2022-07-21T14:11:47;24.60;99.90
6252;DHT22;3159;52.414;9.784;2022-07-21T14:14:14;24.60;99.90
6252;DHT22;3159;52.414;9.784;2022-07-21T14:16:47;24.40;99.90
6252;DHT22;3159;52.414;9.784;2022-07-21T14:19:14;24.30;99.90
6252;DHT22;3159;52.414;9.784;2022-07-21T14:21:41;24.30;99.90
6252;DHT22;3159;52.414;9.784;2022-07-21T14:24:08;24.30;99.90
6252;DHT22;3159;52.414;9.784;2022-07-21T14:26:54;24.10;99.90
6252;DHT22;3159;52.414;9.784;2022-07-21T14:29:20;24.00;99.90
6252;DHT22;3159;52.414;9.784;2022-07-21T14:31:47;24.00;99.90
6252;DHT22;3159;52.414;9.784;2022-07-21T14:34:16;23.80;99.90
6252;DHT22;3159;52.414;9.784;2022-07-21T14:36:42;23.80;99.90
6252;DHT22;3159;52.414;9.784;2022-07-21T14:39:09;23.90;99.90
6252;DHT22;3159;52.414;9.784;2022-07-21T14:41:36;23.80;99.90
6252;DHT22;3159;52.414;9.784;2022-07-21T14:44:05;23.80;99.90
6252;DHT22;3159;52.414;9.784;2022-07-21T14:46:32;23.80;99.90
6252;DHT22;3159;52.414;9.784;2022-07-21T14:48:58;24.00;99.90
6252;DHT22;3159;52.414;9.784;2022-07-21T14:51:25;23.80;99.90
6252;DHT22;3159;52.414;9.784;2022-07-21T14:53:52;23.90;99.90
6252;DHT22;3159;52.414;9.784;2022-07-21T14:56:19;23.90;99.90
6252;DHT22;3159;52.414;9.784;2022-07-21T14:58:46;24.10;99.90
6252;DHT22;3159;52.414;9.784;2022-07-21T15:01:15;24.00;99.90
6252;DHT22;3159;52.414;9.784;2022-07-21T15:03:41;24.10;99.90
6252;DHT22;3159;52.414;9.784;2022-07-21T15:06:09;24.00;99.90
6252;DHT22;3159;52.414;9.784;2022-07-21T15:08:35;24.00;99.90
6252;DHT22;3159;52.414;9.784;2022-07-21T15:11:02;24.00;99.90
6252;DHT22;3159;52.414;9.784;2022-07-21T15:13:29;24.10;99.90
6252;DHT22;3159;52.414;9.784;2022-07-21T15:15:57;24.10;99.90
6252;DHT22;3159;52.414;9.784;2022-07-21T15:18:25;24.20;99.90
6252;DHT22;3159;52.414;9.784;2022-07-21T15:20:52;23.90;99.90
6252;DHT22;3159;52.414;9.784;2022-07-21T15:23:19;23.80;99.90
6252;DHT22;3159;52.414;9.784;2022-07-21T15:25:46;23.80;99.90
6252;DHT22;3159;52.414;9.784;2022-07-21T15:28:13;23.80;99.90
6252;DHT22;3159;52.414;9.784;2022-07-21T15:30:39;23.60;99.90
6252;DHT22;3159;52.414;9.784;2022-07-21T15:33:06;23.60;99.90
6252;DHT22;3159;52.414;9.784;2022-07-21T15:35:35;23.60;99.90
6252;DHT22;3159;52.414;9.784;2022-07-21T15:38:02;23.60;99.90
6252;DHT22;3159;52.414;9.784;2022-07-21T15:40:29;23.60;99.90
6252;DHT22;3159;52.414;9.784;2022-07-21T15:42:56;23.60;99.90
6252;DHT22;3159;52.414;9.784;2022-07-21T15:45:23;23.80;99.90
6252;DHT22;3159;52.414;9.784;2022-07-21T15:47:50;23.70;99.90
6252;DHT22;3159;52.414;9.784;2022-07-21T15:50:17;23.70;99.90
6252;DHT22;3159;52.414;9.784;2022-07-21T15:52:45;23.70;99.90
6252;DHT22;3159;52.414;9.784;2022-07-21T15:55:12;23.70;99.90
6252;DHT22;3159;52.414;9.784;2022-07-21T15:57:39;23.50;99.90
6252;DHT22;3159;52.414;9.784;2022-07-21T16:00:08;23.80;99.90
6252;DHT22;3159;52.414;9.784;2022-07-21T16:02:36;23.80;99.90
6252;DHT22;3159;52.414;9.784;2022-07-21T16:05:03;23.80;99.90
6252;DHT22;3159;52.414;9.784;2022-07-21T16:07:30;23.70;99.90
6252;DHT22;3159;52.414;9.784;2022-07-21T16:09:59;23.60;99.90
6252;DHT22;3159;52.414;9.784;2022-07-21T16:12:25;23.80;99.90
6252;DHT22;3159;52.414;9.784;2022-07-21T16:14:52;23.80;99.90